Fairview Valley, Nevada Weather observations

Data are for observation ending at time listed.
 Day   Time    Ave.   Ave.  Ave.  Vector   Max.   Stn.    Total    Solar   Ave.   Ave.    #1       #2
  of    of     Air    Rel.  Wind   Wind    Wind   Baro.  Precip.   Rad.    Soil   Vis.   Cloud   Cloud
Year   Day     Temp.  Hum.  Speed  Dir.    Gust   Pres.                    Temp.          Ceil    Ceil
2014   (PST)    F      %     mph   deg.    mph     mb.     in.     W/m2     F     (km)   k ft.   k ft.
------------------------------------------------------------------------------------------------------
 258   20:50   79.4    24   14.2   288     18.2    870     0.00       0    81.1   999.0   10.0  999.0
 258   21:00   79.8    24   15.1   307     18.6    870     0.00       0    81.0   999.0    0.0  999.0
 258   21:10   79.8    24   14.3   311     20.0    870     0.00       0    81.0   999.0    1.3  999.0
 258   21:20   80.1    24   15.8   322     20.5    870     0.00       0    80.9   999.0   20.6  999.0
 258   21:30  999.0   999  999.0   999    999.0    999    999.00     999   999.0   999.0  999.0  999.0
 258   21:40  999.0   999  999.0   999    999.0    999    999.00     999   999.0   999.0  999.0  999.0
 258   21:50   79.0    25    9.5   312     15.3    870     0.00       0    80.7   999.0    1.8  999.0
 258   22:00   78.1    26    3.9   320      7.5    871     0.00       0    80.6   999.0    4.9  999.0
 258   22:10   75.3    28    4.4   156      7.0    871    258.00       0   3722.0    14.2  288.0  999.0
 258   22:20  999.0   999  999.0   999    999.0    999    999.00     999   999.0   999.0  999.0  999.0
 258   22:30  999.0   999  999.0   999    999.0    999    999.00     999   999.0   999.0  999.0  999.0
 258   22:40  999.0   999  999.0   999    999.0    999    999.00     999   999.0   999.0  999.0  999.0
 258   22:50  999.0   999  999.0   999    999.0    999    999.00     999   999.0   999.0  999.0  999.0
 258   23:00  999.0   999  999.0   999    999.0    999    999.00     999   999.0   999.0  999.0  999.0
 258   23:10  999.0   999  999.0   999    999.0    999    999.00     999   999.0   999.0  999.0  999.0
 258   23:20  999.0   999  999.0   999    999.0    999    999.00     999   999.0   999.0  999.0  999.0
 258   23:30  999.0   999  999.0   999    999.0    999    999.00     999   999.0   999.0  999.0  999.0
 258   23:40  999.0   999  999.0   999    999.0    999    999.00     999   999.0   999.0  999.0  999.0
 258   23:50  999.0   999  999.0   999    999.0    999    999.00     999   999.0   999.0  999.0  999.0
 259    0:00  999.0   999  999.0   999    999.0    999    999.00     999   999.0   999.0  999.0  999.0
 259    0:10  999.0   999  999.0   999    999.0    999    999.00     999   999.0   999.0  999.0  999.0
 259    0:20  999.0   999  999.0   999    999.0    999    999.00     999   999.0   999.0  999.0  999.0
 259    0:30  999.0   999  999.0   999    999.0    999    999.00     999   999.0   999.0  999.0  999.0
 259    0:40  999.0   999  999.0   999    999.0    999    999.00     999   999.0   999.0  999.0  999.0
 259    0:50  999.0   999  999.0   999    999.0    999    999.00     999   999.0   999.0  999.0  999.0
 259    1:00  999.0   999  999.0   999    999.0    999    999.00     999   999.0   999.0  999.0  999.0
 259    1:10  999.0   999  999.0   999    999.0    999    999.00     999   999.0   999.0  999.0  999.0
 259    1:20  999.0   999  999.0   999    999.0    999    999.00     999   999.0   999.0  999.0  999.0
 259    1:30  999.0   999  999.0   999    999.0    999    999.00     999   999.0   999.0  999.0  999.0
 259    1:40  999.0   999  999.0   999    999.0    999    999.00     999   999.0   999.0  999.0  999.0
 259    1:50  999.0   999  999.0   999    999.0    999    999.00     999   999.0   999.0  999.0  999.0
 259    2:00  999.0   999  999.0   999    999.0    999    999.00     999   999.0   999.0  999.0  999.0
 259    2:10  999.0   999  999.0   999    999.0    999    999.00     999   999.0   999.0  999.0  999.0
 259    2:20  999.0   999  999.0   999    999.0    999    999.00     999   999.0   999.0  999.0  999.0
 259    2:30  999.0   999  999.0   999    999.0    999    999.00     999   999.0   999.0  999.0  999.0
 259    2:40  999.0   999  999.0   999    999.0    999    999.00     999   999.0   999.0  999.0  999.0
 259    2:50  999.0   999  999.0   999    999.0    999    999.00     999   999.0   999.0  999.0  999.0
 259    3:00  999.0   999  999.0   999    999.0    999    999.00     999   999.0   999.0  999.0  999.0
 259    3:10  999.0   999  999.0   999    999.0    999    999.00     999   999.0   999.0  999.0  999.0
 259    3:20  999.0   999  999.0   999    999.0    999    999.00     999   999.0   999.0  999.0  999.0
 259    3:30  999.0   999  999.0   999    999.0    999    999.00     999   999.0   999.0  999.0  999.0
 259    3:40  999.0   999  999.0   999    999.0    999    999.00     999   999.0   999.0  999.0  999.0
 259    3:50  999.0   999  999.0   999    999.0    999    999.00     999   999.0   999.0  999.0  999.0
 259    4:00  999.0   999  999.0   999    999.0    999    999.00     999   999.0   999.0  999.0  999.0
 259    4:10  999.0   999  999.0   999    999.0    999    999.00     999   999.0   999.0  999.0  999.0
 259    4:20  999.0   999  999.0   999    999.0    999    999.00     999   999.0   999.0  999.0  999.0
 259    4:30  999.0   999  999.0   999    999.0    999    999.00     999   999.0   999.0  999.0  999.0
 259    4:40  999.0   999  999.0   999    999.0    999    999.00     999   999.0   999.0  999.0  999.0
 259    4:50  999.0   999  999.0   999    999.0    999    999.00     999   999.0   999.0  999.0  999.0
 259    5:00  999.0   999  999.0   999    999.0    999    999.00     999   999.0   999.0  999.0  999.0
 259    5:10  999.0   999  999.0   999    999.0    999    999.00     999   999.0   999.0  999.0  999.0
 259    5:20  999.0   999  999.0   999    999.0    999    999.00     999   999.0   999.0  999.0  999.0
 259    5:30  999.0   999  999.0   999    999.0    999    999.00     999   999.0   999.0  999.0  999.0
 259    5:40  999.0   999  999.0   999    999.0    999    999.00     999   999.0   999.0  999.0  999.0
 259    5:50   59.5    43    4.7   179      6.3    872     0.00       8    76.5   999.0    0.0  999.0
 259    6:00   60.2    42    4.2   180      5.6    872     0.00      21    76.4   999.0    0.0  999.0
 259    6:10   60.8    40    4.2   194      6.4    872     0.00      41    76.3   999.0    0.0  999.0
 259    6:20   59.7    40    3.8   175      5.0    872     0.00      67    76.2   999.0    0.0  999.0
 259    6:30   59.7    40    2.3   170      3.7    872     0.00      99    76.1   999.0    0.0  999.0
 259    6:40  999.0   999  999.0   999    999.0    999    999.00     999   999.0   999.0  999.0  999.0
 259    6:50   61.8    37    1.4   200      3.9    872     0.00     163    75.8   999.0    0.0  999.0
 259    7:00   63.4    36    1.1   189      2.7    872     0.00     195    75.7   999.0    0.0  999.0
 259    7:10   64.7    34    0.0   198      0.4    872     0.00     228    75.6   999.0    0.0  999.0
 259    7:20   66.6    33    0.2   186      1.9    872     0.00     261    75.5   999.0    0.0  999.0
 259    7:30   68.1    31    0.3   193      2.0    872     0.00     295    75.4   999.0    0.0  999.0
 259    7:40   68.6    31    1.3   247      2.7    872     0.00     329    75.3   999.0    0.0  999.0
 259    7:50   68.7    31    1.3   257      2.8    872     0.00     361    75.2   999.0    0.0  999.0
 259    8:00   70.0    30    0.6   256      2.1    872     0.00     396    75.1   999.0    0.0  999.0
 259    8:10   71.7    28    1.3   257      3.7    872     0.00     431    75.0   999.0    0.0  999.0
 259    8:20   72.6    28    1.3   258      3.9    872     0.00     460    74.9   999.0    0.0  999.0
 259    8:30   74.3    26    1.4   248      2.9    872     0.00     489    74.8   999.0    0.0  999.0
 259    8:40   75.9    25    1.6   219      3.4    872     0.00     519    74.8   999.0    0.0  999.0
 259    8:50   78.0    24    1.6   213      3.4    872     0.00     547    74.8   999.0    0.0  999.0
 259    9:00   80.0    22    1.2   168      3.6    872     0.00     576    74.8   999.0    0.0  999.0
 259    9:10   81.4    21    0.8     8      4.3    872     0.00     602    74.7   999.0    0.0  999.0
 259    9:20   82.5    20    1.2   344      5.7    872     0.00     629    74.7   999.0    0.0  999.0
 259    9:30   82.8    20    1.3   358      3.7    871     0.00     655    74.6   999.0    0.0  999.0
 259    9:40   84.3    20    1.9    56      6.1    871     0.00     678    74.6   999.0    0.0  999.0
 259    9:50   85.2    19    2.5    52      5.6    871     0.00     698    74.6   999.0    0.0  999.0
 259   10:00   86.1    18    3.3    48      7.1    871     0.00     718    74.5   999.0    0.0  999.0
 259   10:10   85.8    19    2.8    32      7.0    871     0.00     739    74.5   999.0    0.0  999.0
 259   10:20   87.1    18    3.3    46      6.9    871     0.00     754    74.6   999.0    0.0  999.0
 259   10:30   87.7    18    3.4     8      7.7    871     0.00     770    74.5   999.0    0.0  999.0
 259   10:40   87.8    17    2.2   292      8.0    871     0.00     786    74.5   999.0    0.0  999.0
 259   10:50   88.5    17    3.0   346      6.0    871     0.00     804    74.6   999.0    0.0  999.0
 259   11:00   89.4    16    4.2    10     10.0    870     0.00     814    74.6   999.0    0.0  999.0
 259   11:10   89.3    16    3.3   270      7.4    870     0.00     822    74.6   999.0    0.0  999.0
 259   11:20   89.9    15    5.2   219      9.8    870     0.00     837    74.6   999.0    0.0  999.0
 259   11:30   90.2    15    5.6   135     11.0    870     0.00     841    74.6   999.0    0.0  999.0
 259   11:40   90.7    14    4.6   137      9.1    870     0.00     842    74.6   999.0    0.0  999.0
 259   11:50   91.4    14    6.6   149     13.7    870     0.00     866    74.7   999.0    0.0  999.0
 259   12:00   92.3    12    9.8   182     17.2    870     0.00     881    74.8   999.0    0.0  999.0
 259   12:10   92.9    12    9.6   172     21.5    870     0.00     871    74.8   999.0    0.0  999.0
 259   12:20   92.9    12   11.0   166     20.0    869     0.00     862    74.9   999.0    0.0  999.0
 259   12:30   93.3    12   10.3   223     15.0    869     0.00     838    75.0   999.0    0.0  999.0
 259   12:40   93.0    12   11.8   168     17.8    869     0.00     845    75.1   999.0    0.0  999.0
 259   12:50   93.3    12   10.0   191     18.8    869     0.00     855    75.2   999.0    0.0  999.0
 259   13:00   93.4    12    9.5   186     18.0    869     0.00     830    75.4   999.0    0.0  999.0
 259   13:10   93.1    12   10.2   213     19.6    869     0.00     801    75.5   999.0    0.0  999.0
 259   13:20   94.0    12   10.0   213     21.0    869     0.00     803    75.7   999.0    0.0  999.0
 259   13:30   93.5    12    6.3   234     13.4    869     0.00     782    75.9   999.0    0.0  999.0
 259   13:40   94.2    12    7.6   223     13.6    868     0.00     775    76.1   999.0    0.0  999.0
 259   13:50   93.4    12    9.4   219     17.0    868     0.00     524    76.3   999.0    0.0  999.0
 259   14:00   93.1    12    8.7   220     16.8    868     0.00     561    76.5   999.0    0.0  999.0
 259   14:10   93.8    12    7.4   198     14.8    868     0.00     410    76.8   999.0    0.0  999.0
 259   14:20   93.4    12    7.3   228     11.6    868     0.00     524    77.0   999.0    0.0  999.0
 259   14:30   93.2    12    8.1   234     12.3    868     0.00     521    77.2   999.0    0.0  999.0
 259   14:40   95.4    11   10.6   218     16.6    868     0.00     690    77.5   999.0    0.0  999.0
 259   14:50   94.7    12    7.2   193     12.3    867     0.00     541    77.7   999.0    0.0  999.0
 259   15:00   93.7    12    6.5   219     12.6    867     0.00     266    77.9   999.0    0.0  999.0
 259   15:10   94.4    12    6.8   246     17.4    867     0.00     597    78.2   999.0    0.0  999.0
 259   15:20   94.7    12    8.2   259     16.4    867     0.00     558    78.4   999.0    0.7  999.0
 259   15:30   94.6    12    5.8   258     11.5    867     0.00     424    78.7   999.0    0.0  999.0
 259   15:40   93.7    12    8.5   274     17.5    867     0.00     357    78.9   999.0    0.6  999.0
 259   15:50   93.0    12    6.0   278     11.6    867     0.00     277    79.1   999.0    0.0  999.0
 259   16:00   92.7    12    5.5   318     11.8    867     0.00     242    79.4   999.0    0.0  999.0
 259   16:10   93.5    12    2.3   300      8.0    867     0.00     409    79.6   999.0    0.0  999.0
 259   16:20   93.7    12    5.0   340     11.3    867     0.00     290    79.8   999.0    0.0  999.0
 259   16:30   93.3    12    3.3   356      7.4    867     0.00     268    80.1   999.0    0.0  999.0
 259   16:40   92.9    12    7.9   278     12.6    867     0.00     110    80.3   999.0    0.0  999.0
 259   16:50   91.8    12    8.0   270     13.7    867     0.00      92    80.5   999.0    0.0  999.0
 259   17:00   92.4    12    7.6   271     10.3    867     0.00     209    80.7   999.0    0.0  999.0
 259   17:10   92.8    12    7.3   273     11.5    867     0.00     179    80.9   999.0    0.0  999.0
 259   17:20   92.7    12    6.1   273     10.0    867     0.00     151    81.1   999.0    0.0  999.0
 259   17:30   92.9    12    1.9   274      5.8    867     0.00     110    81.3   999.0    0.0  999.0
 259   17:40   91.6    12    4.1   254      7.4    867     0.00      41    81.5   999.0    4.2  999.0
 259   17:50   90.8    12    2.5   261      4.5    867     0.00      18    81.7   999.0    8.3  999.0
 259   18:00   90.2    12    3.7   262      5.7    867     0.00      12    81.8   999.0    9.7  999.0
 259   18:10   89.0    13    5.7   276     11.7    867     0.00       3    81.9   999.0    9.4  999.0
 259   18:20   87.4    13    9.9   319     13.4    867     0.00       0    82.1   999.0    6.2  999.0
 259   18:30   85.9    14    8.3   322     10.3    867     0.00       0    82.1   999.0    0.0  999.0
 259   18:40   84.0    14    8.5   332     10.0    867     0.00       0    82.3   999.0    0.0  999.0
 259   18:50   82.8    15    6.3   319      7.4    867     0.00       0    82.4   999.0    0.0  999.0
 259   19:00   81.2    16    7.5   299      8.4    867     0.00       0    82.5   999.0    1.4  999.0
 259   19:10   80.0    16    8.4   304      9.7    867     0.00       0    82.5   999.0    0.0  999.0
 259   19:20   80.3    17   10.6   292     14.0    867     0.00       0    82.5   999.0    0.0  999.0
 259   19:30   82.0    15   13.9   300     19.0    867     0.00       0    82.5   999.0    0.0  999.0
 259   19:40   83.2    13   16.0   302     21.1    867     0.00       0    82.6   999.0    0.0  999.0
 259   19:50   82.9    13   14.6   304     20.2    868     0.00       0    82.6   999.0    0.0  999.0
 259   20:00   82.5    12   13.0   310     17.7    868     0.00       0    82.5   999.0    0.0  999.0
 259   20:10   81.6    12    7.5   347     13.6    868     0.00       0    82.6   999.0    0.0  999.0
 259   20:20   79.6    12    5.1   108      7.7    868     0.00       0    82.6   999.0    0.0  999.0
 259   20:30   79.1    12    3.4   148      7.5    868     0.00       0    82.5   999.0    0.0  999.0
 259   20:40   81.6    11    3.0   202      9.6    868     0.00       0    82.5   999.0    0.0  999.0

Return to Fairview Valley graphs page.


Western Regional Climate Center,wrcc@dri.edu